»·PEaware :: PSV800 KBOI-KSEA

PSV800 :: KBOI-KSEA

FLIGHT INFORMATION

Flight Status: Arrived
Operator:
Power Set Virtual (website)
More flights by this operator :: More flights under this callsign
Pilot: Scott L. (17677)
Aircraft: CESSNA 510 CITATION MUSTANG
(C510)
More flights by this aircraft type
Origin: KBOI Boise Air Terminal/Gowen
United States
Destination: KSEA Seattle-Tacoma Intl
United States
More flights between these airports :: More routes between these airports
Route: +BOI3 OLAAH PREIS PDT CHINS4
File this flight plan on PilotEdge
Remarks:
Altitude:
(Current/Filed)
38,000ft
Speed:
(Current/Filed)
400kts
Departed: 03-Apr-20 11:39 AM
Arrived: 03-Apr-20 12:56 PM
Distance/Time
Traveled:
346nm/1:17
Distance/Time
To Go:
Arrived

Flight Plot

Page will automatically refresh every two minutes.


Map Options




Map Legend


Flown Route
Filed Route
Departure Airport
Arrival Airport
Navaid (VOR, NDB)
Fix

Horizontal Profiles

Position Reports

Time Latitude Longitude Heading Altitude Ground
Speed
03-Apr-20 11:26 43.562108 -116.205353 191 2846ft 0kts
03-Apr-20 11:27 43.562108 -116.205353 190 2846ft 0kts
03-Apr-20 11:28 43.562108 -116.205353 190 2846ft 0kts
03-Apr-20 11:29 43.562108 -116.205353 190 2846ft 0kts
03-Apr-20 11:30 43.562108 -116.205353 190 2846ft 0kts
03-Apr-20 11:31 43.562108 -116.205353 190 2846ft 0kts
03-Apr-20 11:32 43.562108 -116.205353 190 2846ft 0kts
03-Apr-20 11:33 43.562108 -116.205353 190 2846ft 0kts
03-Apr-20 11:34 43.561443 -116.207931 290 2843ft 25kts
03-Apr-20 11:35 43.564810 -116.217527 293 2843ft 29kts
03-Apr-20 11:36 43.567234 -116.224870 301 2843ft 22kts
03-Apr-20 11:37 43.570625 -116.234607 294 2843ft 20kts
03-Apr-20 11:38 43.566698 -116.226676 118 2843ft 112kts
03-Apr-20 11:39 43.553028 -116.178423 113 5752ft 149kts
03-Apr-20 11:40 43.533730 -116.108383 113 7959ft 240kts
03-Apr-20 11:41 43.529158 -116.012308 46 10244ft 297kts
03-Apr-20 11:42 43.600001 -116.035223 312 12878ft 300kts
03-Apr-20 11:43 43.660257 -116.115757 312 15486ft 303kts
03-Apr-20 11:44 43.721036 -116.195365 312 18088ft 299kts
03-Apr-20 11:45 43.782882 -116.276117 312 19942ft 315kts
03-Apr-20 11:46 43.847145 -116.360301 312 21729ft 320kts
03-Apr-20 11:47 43.911623 -116.445095 311 23524ft 320kts
03-Apr-20 11:48 43.976048 -116.530099 311 25322ft 317kts
03-Apr-20 11:49 44.039629 -116.614266 311 27110ft 312kts
03-Apr-20 11:50 44.101942 -116.697044 311 28912ft 306kts
03-Apr-20 11:51 44.171078 -116.766235 311 30707ft 299kts
03-Apr-20 11:52 44.229445 -116.846230 310 32519ft 290kts
03-Apr-20 11:53 44.286233 -116.924250 311 34328ft 279kts
03-Apr-20 11:54 44.340065 -116.998426 311 36106ft 267kts
03-Apr-20 11:55 44.391568 -117.069589 312 37879ft 252kts
03-Apr-20 11:56 44.443819 -117.142133 313 38163ft 284kts
03-Apr-20 11:58 44.503449 -117.224537 313 38139ft 315kts
03-Apr-20 11:59 44.567685 -117.313800 313 38114ft 334kts
03-Apr-20 12:00 44.634896 -117.407696 313 38098ft 346kts
03-Apr-20 12:01 44.703945 -117.504474 313 38095ft 353kts
03-Apr-20 12:02 44.773704 -117.602668 313 38094ft 356kts
03-Apr-20 12:03 44.843832 -117.701714 313 38101ft 358kts
03-Apr-20 12:04 44.914474 -117.801859 313 38098ft 360kts
03-Apr-20 12:05 44.985064 -117.902212 313 38100ft 360kts
03-Apr-20 12:06 45.055921 -118.003236 312 38111ft 361kts
03-Apr-20 12:07 45.126795 -118.104858 312 38129ft 363kts
03-Apr-20 12:08 45.197819 -118.207183 312 38128ft 365kts
03-Apr-20 12:09 45.269151 -118.310225 312 38127ft 366kts
03-Apr-20 12:10 45.340592 -118.413867 312 38128ft 366kts
03-Apr-20 12:11 45.411622 -118.517221 312 38131ft 365kts
03-Apr-20 12:12 45.482840 -118.621278 312 38132ft 365kts
03-Apr-20 12:13 45.553130 -118.724422 312 38139ft 366kts
03-Apr-20 12:14 45.624188 -118.828998 312 38120ft 366kts
03-Apr-20 12:15 45.694721 -118.933473 312 38118ft 362kts
03-Apr-20 12:16 45.759615 -119.042418 310 38116ft 356kts
03-Apr-20 12:17 45.823283 -119.149605 310 38125ft 352kts
03-Apr-20 12:17 45.875883 -119.238796 310 38129ft 350kts
03-Apr-20 12:19 45.949296 -119.363795 310 38125ft 350kts
03-Apr-20 12:20 46.012903 -119.472539 310 37249ft 366kts
03-Apr-20 12:20 46.068137 -119.567385 310 35948ft 371kts
03-Apr-20 12:21 46.134528 -119.681819 309 34425ft 373kts
03-Apr-20 12:23 46.212835 -119.817121 309 32710ft 376kts
03-Apr-20 12:23 46.268947 -119.914603 308 31478ft 379kts
03-Apr-20 12:24 46.336755 -120.032907 308 29990ft 383kts
03-Apr-20 12:25 46.405022 -120.152594 307 28491ft 387kts
03-Apr-20 12:26 46.473175 -120.272654 307 27336ft 384kts
03-Apr-20 12:27 46.540691 -120.392062 307 26439ft 380kts
03-Apr-20 12:28 46.603000 -120.513029 303 25103ft 368kts
03-Apr-20 12:29 46.660705 -120.633677 303 24081ft 351kts
03-Apr-20 12:30 46.715316 -120.748640 302 24091ft 332kts
03-Apr-20 12:31 46.768538 -120.861080 302 23109ft 348kts
03-Apr-20 12:32 46.824323 -120.979327 302 21522ft 359kts
03-Apr-20 12:33 46.877847 -121.093645 302 18603ft 324kts
03-Apr-20 12:34 46.927183 -121.199338 303 15192ft 312kts
03-Apr-20 12:35 46.975824 -121.303292 303 12089ft 299kts
03-Apr-20 12:36 47.017821 -121.393450 302 12130ft 246kts
03-Apr-20 12:37 47.055008 -121.473812 302 12160ft 233kts
03-Apr-20 12:38 47.096653 -121.564456 302 12162ft 291kts
03-Apr-20 12:39 47.141773 -121.662550 302 12160ft 300kts
03-Apr-20 12:40 47.189168 -121.765937 302 12052ft 306kts
03-Apr-20 12:41 47.236381 -121.869355 302 12024ft 307kts
03-Apr-20 12:42 47.283619 -121.973216 302 12023ft 307kts
03-Apr-20 12:43 47.330538 -122.076785 302 11754ft 314kts
03-Apr-20 12:44 47.376935 -122.179372 301 10119ft 268kts
03-Apr-20 12:45 47.417475 -122.263679 303 7324ft 249kts
03-Apr-20 12:46 47.467522 -122.316071 318 7023ft 217kts
03-Apr-20 12:47 47.521242 -122.377324 318 5907ft 273kts
03-Apr-20 12:48 47.590250 -122.419300 4 4021ft 269kts
03-Apr-20 12:49 47.630215 -122.365876 120 3648ft 242kts
03-Apr-20 12:50 47.577118 -122.307899 191 2179ft 187kts
03-Apr-20 12:51 47.541259 -122.317572 184 2074ft 127kts
03-Apr-20 12:52 47.504259 -122.317410 183 1790ft 117kts
03-Apr-20 12:53 47.472902 -122.317500 182 779ft 111kts
03-Apr-20 12:54 47.449355 -122.318014 183 331ft 58kts
03-Apr-20 12:55 47.441533 -122.316208 155 331ft 14kts
03-Apr-20 12:56 47.438154 -122.310440 92 331ft 28kts

Navigation Log

Ident Type
Flight plan parsing failed, navigation log unavailable